Time;durP1;ratioP1;P1;durP2;ratioP2;P2;SDS_P1;SDS_P2;PMS_P1;PMS_P2;Temp;Humidity;BMP_temperature;BMP_pressure;BME280_temperature;BME280_humidity;BME280_pressure;Samples;Min_cycle;Max_cycle;Signal;HPM_P1;HPM_P2
2022/07/25 00:01:36;;;;;;;1.73;1.63;;;21.90;86.70;;;;;;5013586;28;20282;-71
2022/07/25 00:04:01;;;;;;;2.03;1.70;;;21.90;86.70;;;;;;5013819;28;20190;-71
2022/07/25 00:06:27;;;;;;;1.70;1.40;;;21.90;86.90;;;;;;5013188;28;20945;-71
2022/07/25 00:08:53;;;;;;;2.27;1.53;;;21.90;86.60;;;;;;5013675;28;20172;-71
2022/07/25 00:11:18;;;;;;;2.00;1.53;;;21.90;86.30;;;;;;5013279;28;20202;-71
2022/07/25 00:13:44;;;;;;;1.47;1.30;;;21.90;86.40;;;;;;5013405;28;20645;-71
2022/07/25 00:16:09;;;;;;;2.07;1.87;;;21.90;86.20;;;;;;5012788;28;20198;-71
2022/07/25 00:18:35;;;;;;;1.60;1.50;;;21.90;86.50;;;;;;5013275;28;20172;-70
2022/07/25 00:21:01;;;;;;;1.57;1.47;;;21.90;86.50;;;;;;5015527;28;20177;-70
2022/07/25 00:23:26;;;;;;;2.20;1.57;;;21.80;86.50;;;;;;5017672;28;20177;-70
2022/07/25 00:25:52;;;;;;;3.50;2.00;;;21.80;86.80;;;;;;5013194;28;20196;-70
2022/07/25 00:28:17;;;;;;;4.53;1.73;;;21.80;86.60;;;;;;5013306;28;20500;-70
2022/07/25 00:30:43;;;;;;;2.57;1.87;;;21.70;86.60;;;;;;5012867;28;20179;-70
2022/07/25 00:33:08;;;;;;;1.87;1.77;;;21.70;87.10;;;;;;5012821;28;20167;-70
2022/07/25 00:35:34;;;;;;;1.33;1.23;;;21.60;87.30;;;;;;5012697;28;20195;-70
2022/07/25 00:37:59;;;;;;;1.60;1.50;;;21.60;88.10;;;;;;5012650;28;20163;-70
2022/07/25 00:40:25;;;;;;;1.67;1.57;;;21.50;88.60;;;;;;5012707;28;20162;-70
2022/07/25 00:42:51;;;;;;;1.50;1.40;;;21.50;89.10;;;;;;5012697;28;20176;-70
2022/07/25 00:45:16;;;;;;;2.20;1.80;;;21.40;89.50;;;;;;5012249;28;20197;-71
2022/07/25 00:47:42;;;;;;;1.67;1.57;;;21.30;89.90;;;;;;5012372;28;20197;-70
2022/07/25 00:50:08;;;;;;;3.97;1.50;;;21.30;90.10;;;;;;5027978;28;20252;-70
2022/07/25 00:52:34;;;;;;;1.47;1.37;;;21.20;90.30;;;;;;5012596;28;20241;-70
2022/07/25 00:55:00;;;;;;;1.70;1.60;;;21.10;90.50;;;;;;5012433;28;20432;-70
2022/07/25 00:57:25;;;;;;;1.40;1.30;;;21.10;90.60;;;;;;5012510;28;20168;-70
2022/07/25 00:59:51;;;;;;;2.43;2.23;;;21.10;90.80;;;;;;5012499;28;20403;-70
2022/07/25 01:02:17;;;;;;;1.93;1.77;;;21.00;90.80;;;;;;5012601;28;20303;-70
2022/07/25 01:04:43;;;;;;;1.90;1.70;;;21.00;90.80;;;;;;5012084;28;20538;-70
2022/07/25 01:07:08;;;;;;;1.37;1.27;;;21.00;90.70;;;;;;5017878;23;20696;-70
2022/07/25 01:09:35;;;;;;;1.57;1.47;;;21.00;90.90;;;;;;4992399;28;20409;-70
2022/07/25 01:12:00;;;;;;;1.97;1.40;;;20.90;90.80;;;;;;4992653;28;20279;-70
2022/07/25 01:14:26;;;;;;;2.33;1.97;;;20.90;90.70;;;;;;4992418;28;20401;-70
2022/07/25 01:16:51;;;;;;;1.70;1.60;;;20.90;90.80;;;;;;4992261;28;20208;-70
2022/07/25 01:19:17;;;;;;;2.83;2.07;;;20.90;90.70;;;;;;4992598;28;20173;-70
2022/07/25 01:21:42;;;;;;;1.43;1.33;;;20.80;90.70;;;;;;4992368;28;20288;-69
2022/07/25 01:24:09;;;;;;;3.23;1.67;;;20.70;90.90;;;;;;4992487;28;20689;-69
2022/07/25 01:26:36;;;;;;;2.10;1.73;;;20.70;90.90;;;;;;4992191;28;20193;-70
2022/07/25 01:29:01;;;;;;;1.80;1.40;;;20.60;91.00;;;;;;4992518;28;20459;-70
2022/07/25 01:31:27;;;;;;;1.50;1.40;;;20.70;91.10;;;;;;4992255;28;20450;-70
2022/07/25 01:33:52;;;;;;;1.50;1.40;;;20.70;91.00;;;;;;4992367;28;20169;-69
2022/07/25 01:36:18;;;;;;;1.93;1.20;;;20.60;91.20;;;;;;4991814;28;20192;-70
2022/07/25 01:38:43;;;;;;;1.97;1.87;;;20.60;91.20;;;;;;4992232;28;20673;-70
2022/07/25 01:41:09;;;;;;;1.73;1.40;;;20.60;91.20;;;;;;4992395;28;20174;-69
2022/07/25 01:43:34;;;;;;;2.50;1.87;;;20.50;91.20;;;;;;4992576;28;20165;-69
2022/07/25 01:46:00;;;;;;;1.83;1.43;;;20.60;91.20;;;;;;4991798;28;20624;-69
2022/07/25 01:48:25;;;;;;;1.57;1.47;;;20.60;91.20;;;;;;4989473;28;20162;-70
2022/07/25 01:50:51;;;;;;;7.07;1.90;;;20.50;91.30;;;;;;4992231;28;20252;-70
2022/07/25 01:53:16;;;;;;;1.57;1.47;;;20.50;91.20;;;;;;4992332;28;20569;-69
2022/07/25 01:55:44;;;;;;;1.60;1.40;;;20.50;91.30;;;;;;4996098;28;20181;-69
2022/07/25 01:58:10;;;;;;;1.87;1.60;;;20.50;91.30;;;;;;4996161;28;20173;-70
2022/07/25 02:00:35;;;;;;;1.70;1.60;;;20.40;91.40;;;;;;4996084;28;20411;-70
2022/07/25 02:05:45;;;;;;;1.60;1.47;;;20.40;91.40;;;;;;4995794;28;20578;-71
2022/07/25 02:08:11;;;;;;;1.90;1.70;;;20.40;91.30;;;;;;4996064;28;20408;-71
2022/07/25 02:10:36;;;;;;;1.77;1.53;;;20.40;91.40;;;;;;4996180;28;20167;-70
2022/07/25 02:13:02;;;;;;;1.80;1.43;;;20.30;91.40;;;;;;4996083;28;20181;-71
2022/07/25 02:15:27;;;;;;;1.70;1.60;;;20.30;91.50;;;;;;4995684;28;20153;-69
2022/07/25 02:17:53;;;;;;;1.80;1.70;;;20.30;91.90;;;;;;4995985;28;20170;-69
2022/07/25 02:20:18;;;;;;;1.50;1.40;;;20.20;91.50;;;;;;4995965;28;20168;-69
2022/07/25 02:22:44;;;;;;;1.50;1.40;;;20.20;91.70;;;;;;4995800;28;20703;-70
2022/07/25 02:25:09;;;;;;;2.10;1.90;;;20.30;91.50;;;;;;4995546;28;20666;-70
2022/07/25 02:27:35;;;;;;;1.83;1.73;;;20.30;91.50;;;;;;4995485;28;20197;-68
2022/07/25 02:30:00;;;;;;;3.53;2.13;;;20.30;91.70;;;;;;4995909;28;20517;-69
2022/07/25 02:32:26;;;;;;;2.37;2.13;;;20.30;91.60;;;;;;4995409;28;20197;-70
2022/07/25 02:34:51;;;;;;;7.73;2.20;;;20.20;91.60;;;;;;4994917;28;20173;-69
2022/07/25 02:37:17;;;;;;;2.20;1.60;;;20.30;91.70;;;;;;4994961;28;20271;-69
2022/07/25 02:39:43;;;;;;;1.93;1.47;;;20.20;91.70;;;;;;4994915;28;20165;-69
2022/07/25 02:42:08;;;;;;;3.07;2.13;;;20.10;91.90;;;;;;4994808;28;20705;-69
2022/07/25 02:44:34;;;;;;;2.17;2.07;;;20.10;92.00;;;;;;4995065;28;20170;-69
2022/07/25 02:46:59;;;;;;;2.13;1.83;;;20.10;92.10;;;;;;4995048;28;20703;-70
2022/07/25 02:49:25;;;;;;;1.80;1.40;;;20.10;92.20;;;;;;4995435;28;20181;-69
2022/07/25 02:51:50;;;;;;;2.60;1.27;;;20.10;92.20;;;;;;4994853;28;20197;-70
2022/07/25 02:54:16;;;;;;;1.70;1.60;;;20.00;92.40;;;;;;4995330;28;20171;-70
2022/07/25 02:56:41;;;;;;;1.57;1.47;;;20.00;92.60;;;;;;4994550;28;20220;-70
2022/07/25 02:59:07;;;;;;;2.80;2.00;;;19.90;92.70;;;;;;4994803;28;20197;-70
2022/07/25 03:01:32;;;;;;;2.23;2.03;;;19.90;92.80;;;;;;4994577;28;20170;-69
2022/07/25 03:03:58;;;;;;;1.60;1.50;;;19.90;92.80;;;;;;4994686;28;20178;-70
2022/07/25 03:06:24;;;;;;;1.80;1.57;;;19.90;92.90;;;;;;4992831;28;20587;-71
2022/07/25 03:08:50;;;;;;;2.27;1.83;;;19.80;93.00;;;;;;4994695;28;20177;-70
2022/07/25 03:11:15;;;;;;;2.27;2.07;;;19.80;93.20;;;;;;4994570;28;20445;-69
2022/07/25 03:13:41;;;;;;;2.30;1.53;;;19.80;93.20;;;;;;4994585;28;20162;-70
2022/07/25 03:16:07;;;;;;;1.60;1.50;;;19.80;93.30;;;;;;4993926;28;20210;-69
2022/07/25 03:18:32;;;;;;;2.60;1.93;;;19.80;93.30;;;;;;4994382;28;20173;-69
2022/07/25 03:20:58;;;;;;;1.70;1.60;;;19.70;93.40;;;;;;4994427;28;20591;-70
2022/07/25 03:23:26;;;;;;;1.60;1.50;;;19.70;93.60;;;;;;4994594;28;20173;-70
2022/07/25 03:25:51;;;;;;;2.27;1.50;;;19.70;93.50;;;;;;4994461;28;20209;-70
2022/07/25 03:28:17;;;;;;;2.00;1.10;;;19.70;93.60;;;;;;4994682;28;20496;-70
2022/07/25 03:30:42;;;;;;;3.50;1.50;;;19.60;93.60;;;;;;4994255;28;20170;-70
2022/07/25 03:33:08;;;;;;;2.70;1.70;;;19.70;93.70;;;;;;4994016;28;20558;-69
2022/07/25 03:35:36;;;;;;;1.40;1.30;;;19.60;93.70;;;;;;4993888;28;20169;-70
2022/07/25 03:38:02;;;;;;;2.23;2.03;;;19.70;93.70;;;;;;4994220;28;20407;-70
2022/07/25 03:40:28;;;;;;;1.60;1.50;;;19.70;93.90;;;;;;4994110;28;20401;-70
2022/07/25 03:42:53;;;;;;;2.67;2.07;;;19.60;93.90;;;;;;4994129;28;20611;-69
2022/07/25 03:45:19;;;;;;;1.73;1.57;;;19.70;93.90;;;;;;4993840;28;20176;-69
2022/07/25 03:47:44;;;;;;;1.70;1.57;;;19.70;93.90;;;;;;4993836;28;20260;-69
2022/07/25 03:50:10;;;;;;;10.50;2.30;;;19.70;93.80;;;;;;4993613;28;20170;-69
2022/07/25 03:52:37;;;;;;;2.33;1.70;;;19.70;93.90;;;;;;4993714;28;20202;-69
2022/07/25 03:55:07;;;;;;;2.47;1.67;;;19.70;93.80;;;;;;4993397;28;20407;-70
2022/07/25 03:57:32;;;;;;;2.13;1.70;;;19.80;93.80;;;;;;4993674;28;20429;-69
2022/07/25 03:59:58;;;;;;;1.97;1.80;;;19.70;93.90;;;;;;4993561;28;21105;-70
2022/07/25 04:02:23;;;;;;;2.37;1.80;;;19.80;94.00;;;;;;4993463;28;20615;-71
2022/07/25 04:04:49;;;;;;;2.17;1.97;;;19.70;94.00;;;;;;4993107;28;20543;-70
2022/07/25 04:07:14;;;;;;;2.30;2.03;;;19.70;94.10;;;;;;4993266;28;20695;-69
2022/07/25 04:09:41;;;;;;;2.03;1.60;;;19.70;94.10;;;;;;4993240;28;20620;-70
2022/07/25 04:12:06;;;;;;;1.73;1.63;;;19.80;94.50;;;;;;4993339;28;20202;-69
2022/07/25 04:14:32;;;;;;;3.53;1.53;;;19.80;94.10;;;;;;4993301;28;20776;-70
2022/07/25 04:16:58;;;;;;;2.13;1.80;;;19.80;94.20;;;;;;4992496;28;20203;-69
2022/07/25 04:19:24;;;;;;;2.67;2.47;;;19.70;94.20;;;;;;4993135;28;20408;-70
2022/07/25 04:21:49;;;;;;;2.27;1.67;;;19.80;94.30;;;;;;4993130;28;20177;-70
2022/07/25 04:24:15;;;;;;;2.03;1.80;;;19.80;94.20;;;;;;4993031;28;20184;-70
2022/07/25 04:26:41;;;;;;;1.83;1.47;;;19.70;94.40;;;;;;4992775;28;20609;-70
2022/07/25 04:29:06;;;;;;;2.20;2.10;;;19.80;94.30;;;;;;4993176;28;20631;-69
2022/07/25 04:31:32;;;;;;;2.10;1.80;;;19.80;94.50;;;;;;4992918;28;20203;-70
2022/07/25 04:33:58;;;;;;;2.00;1.90;;;19.80;94.70;;;;;;4992739;28;20575;-70
2022/07/25 04:36:23;;;;;;;2.40;1.80;;;20.00;94.30;;;;;;4992686;28;20236;-71
2022/07/25 04:38:49;;;;;;;3.33;1.80;;;20.10;94.10;;;;;;4992899;28;20177;-71
2022/07/25 04:41:14;;;;;;;2.03;1.50;;;20.10;94.30;;;;;;4993044;28;20200;-70
2022/07/25 04:43:40;;;;;;;1.93;1.73;;;20.00;94.30;;;;;;4992895;28;20171;-71
2022/07/25 04:46:06;;;;;;;2.50;1.60;;;20.20;94.40;;;;;;4992381;28;20228;-70
2022/07/25 04:48:31;;;;;;;1.80;1.70;;;20.30;93.90;;;;;;4992598;28;20165;-70
2022/07/25 04:50:57;;;;;;;2.17;1.80;;;20.30;94.00;;;;;;4992712;28;20184;-70
2022/07/25 04:53:23;;;;;;;2.07;1.93;;;20.50;93.40;;;;;;4992601;28;20523;-70
2022/07/25 04:55:48;;;;;;;3.20;1.40;;;20.50;93.70;;;;;;4992326;28;20190;-70
2022/07/25 04:58:14;;;;;;;2.07;1.97;;;20.70;93.50;;;;;;4992625;28;20535;-69
2022/07/25 05:00:39;;;;;;;3.43;2.30;;;20.80;93.40;;;;;;4992420;28;20180;-69
2022/07/25 05:03:05;;;;;;;4.03;2.57;;;20.80;93.70;;;;;;4992242;28;20181;-70
2022/07/25 05:05:30;;;;;;;2.10;1.90;;;21.10;93.10;;;;;;4992108;28;20174;-69
2022/07/25 05:07:58;;;;;;;3.13;2.00;;;21.20;92.80;;;;;;4992289;28;20179;-71
2022/07/25 05:10:25;;;;;;;1.67;1.57;;;21.70;92.20;;;;;;4992772;28;20263;-70
2022/07/25 05:12:51;;;;;;;2.73;2.13;;;22.60;91.20;;;;;;4992536;28;20487;-71
2022/07/25 05:15:16;;;;;;;1.93;1.60;;;23.10;90.10;;;;;;4992214;28;20414;-70
2022/07/25 05:17:42;;;;;;;2.00;1.90;;;23.50;89.60;;;;;;4992293;28;20202;-70
2022/07/25 05:20:08;;;;;;;3.20;1.90;;;23.80;87.70;;;;;;4992757;28;20196;-71
2022/07/25 05:22:34;;;;;;;4.43;1.73;;;24.00;86.80;;;;;;4992234;28;20172;-71
2022/07/25 05:25:01;;;;;;;6.30;4.37;;;24.00;86.60;;;;;;4991978;28;20497;-71
2022/07/25 05:27:27;;;;;;;3.70;3.13;;;24.30;85.50;;;;;;4992056;28;20233;-70
2022/07/25 05:29:53;;;;;;;2.37;2.17;;;24.60;85.00;;;;;;4991548;28;20473;-70
2022/07/25 05:32:18;;;;;;;4.93;3.53;;;24.90;84.30;;;;;;4992021;28;20829;-71
2022/07/25 05:34:44;;;;;;;2.37;2.17;;;25.50;82.10;;;;;;4991835;28;20169;-72
2022/07/25 05:37:10;;;;;;;3.90;3.60;;;25.80;81.50;;;;;;4991804;28;20189;-71
2022/07/25 05:39:38;;;;;;;2.90;2.63;;;26.00;81.10;;;;;;4991954;28;20422;-69
2022/07/25 05:42:04;;;;;;;2.67;1.57;;;25.30;81.80;;;;;;4991935;28;20574;-69
2022/07/25 05:44:30;;;;;;;2.03;1.83;;;25.60;81.40;;;;;;4991593;28;20453;-71
2022/07/25 05:46:55;;;;;;;1.90;1.77;;;25.30;82.50;;;;;;4991419;28;20709;-70
2022/07/25 05:49:21;;;;;;;1.80;1.60;;;25.70;81.30;;;;;;4992119;28;20208;-69
2022/07/25 05:51:47;;;;;;;1.43;1.33;;;25.80;81.10;;;;;;4991748;28;20211;-69
2022/07/25 05:54:12;;;;;;;4.47;3.70;;;25.60;81.30;;;;;;4991895;28;20488;-70
2022/07/25 05:56:38;;;;;;;8.40;6.23;;;25.80;81.60;;;;;;4991643;28;20235;-70
2022/07/25 05:59:04;;;;;;;8.80;7.00;;;25.80;81.50;;;;;;4992327;28;20176;-71
2022/07/25 06:01:29;;;;;;;7.50;5.90;;;26.60;79.50;;;;;;4992337;28;20686;-70
2022/07/25 06:03:55;;;;;;;2.20;1.90;;;26.70;78.30;;;;;;4991799;28;20165;-71
2022/07/25 06:06:20;;;;;;;2.30;2.10;;;26.40;79.60;;;;;;4991542;28;20303;-71
2022/07/25 06:08:46;;;;;;;4.03;3.20;;;26.30;78.70;;;;;;4991964;28;20604;-70
2022/07/25 06:11:12;;;;;;;4.20;3.90;;;27.00;78.50;;;;;;4991748;28;20627;-70
2022/07/25 06:13:37;;;;;;;5.03;3.37;;;27.30;77.20;;;;;;4992255;28;20165;-69
2022/07/25 06:16:03;;;;;;;4.90;2.10;;;27.00;77.90;;;;;;4991270;28;20486;-71
2022/07/25 06:18:29;;;;;;;2.30;2.10;;;27.00;78.80;;;;;;4991472;28;20173;-70
2022/07/25 06:20:54;;;;;;;2.83;2.53;;;26.80;78.90;;;;;;4991514;28;20651;-71
2022/07/25 06:23:20;;;;;;;2.30;2.10;;;27.40;75.10;;;;;;4991562;28;20264;-70
2022/07/25 06:25:46;;;;;;;2.80;2.57;;;27.80;76.70;;;;;;4991317;28;20188;-70
2022/07/25 06:28:13;;;;;;;3.03;2.70;;;27.80;76.00;;;;;;4991637;28;20180;-70
2022/07/25 06:30:43;;;;;;;2.70;2.50;;;27.80;75.50;;;;;;4991474;28;20172;-70
2022/07/25 06:33:10;;;;;;;4.20;2.10;;;29.30;72.60;;;;;;4991638;28;20827;-70
2022/07/25 06:35:35;;;;;;;5.23;3.63;;;29.50;70.30;;;;;;4991238;28;20388;-70
2022/07/25 06:38:01;;;;;;;7.40;5.47;;;29.40;70.60;;;;;;4991361;28;20746;-70
2022/07/25 06:40:27;;;;;;;2.23;2.03;;;30.30;69.90;;;;;;4993557;28;20168;-70
2022/07/25 06:42:53;;;;;;;3.60;3.20;;;28.90;71.30;;;;;;4995201;28;20169;-70
2022/07/25 06:45:18;;;;;;;2.83;2.40;;;28.70;72.60;;;;;;4994706;28;20172;-69
2022/07/25 06:47:44;;;;;;;4.20;2.90;;;29.30;72.20;;;;;;4994874;28;20197;-70
2022/07/25 06:50:13;;;;;;;3.30;2.27;;;30.60;71.30;;;;;;4995149;28;20252;-70
2022/07/25 06:52:39;;;;;;;3.30;2.53;;;30.40;67.30;;;;;;4995073;28;20212;-70
2022/07/25 06:55:06;;;;;;;3.00;2.37;;;30.70;67.10;;;;;;4995027;28;20458;-70
2022/07/25 06:57:32;;;;;;;2.43;2.10;;;30.20;68.50;;;;;;4993607;28;20440;-70
2022/07/25 06:59:57;;;;;;;3.37;3.07;;;30.40;69.00;;;;;;4993495;28;20985;-71
2022/07/25 07:02:23;;;;;;;2.90;2.70;;;31.40;66.70;;;;;;4994595;28;20213;-71
2022/07/25 07:04:49;;;;;;;2.70;2.50;;;31.80;65.50;;;;;;4994654;28;20165;-70
2022/07/25 07:07:15;;;;;;;2.90;2.70;;;30.50;67.30;;;;;;5018514;23;20223;-63
2022/07/25 07:09:41;;;;;;;2.13;2.00;;;29.80;69.90;;;;;;5014008;28;20708;-64
2022/07/25 07:12:07;;;;;;;2.53;2.03;;;30.40;69.70;;;;;;5013799;28;20447;-64
2022/07/25 07:14:33;;;;;;;3.07;2.50;;;31.40;66.60;;;;;;5013795;28;20266;-65
2022/07/25 07:16:58;;;;;;;2.90;2.70;;;32.10;66.30;;;;;;5013539;28;20522;-64
2022/07/25 07:19:24;;;;;;;2.60;2.40;;;31.50;66.80;;;;;;5014467;28;20192;-65
2022/07/25 07:21:50;;;;;;;3.00;2.70;;;32.10;65.60;;;;;;5013650;28;20175;-64
2022/07/25 07:24:16;;;;;;;2.37;2.17;;;32.90;62.60;;;;;;5013916;28;20176;-64
2022/07/25 07:26:42;;;;;;;3.10;2.90;;;31.50;69.20;;;;;;5013265;28;20525;-65
2022/07/25 07:29:07;;;;;;;3.10;2.83;;;31.50;65.70;;;;;;5013561;28;20891;-65
2022/07/25 07:31:33;;;;;;;2.63;2.40;;;31.20;67.30;;;;;;5013517;28;20200;-65
2022/07/25 07:33:58;;;;;;;3.37;3.07;;;32.30;62.90;;;;;;5013590;28;20662;-65
2022/07/25 07:36:24;;;;;;;2.77;2.57;;;31.90;66.20;;;;;;5013262;28;20901;-65
2022/07/25 07:38:51;;;;;;;3.37;3.07;;;31.50;65.40;;;;;;5013595;28;20657;-65
2022/07/25 07:41:17;;;;;;;4.60;3.40;;;32.40;63.50;;;;;;5013397;28;20168;-66
2022/07/25 07:43:42;;;;;;;3.03;2.73;;;31.60;66.70;;;;;;5013619;28;20900;-65
2022/07/25 07:46:08;;;;;;;3.57;3.27;;;31.70;67.00;;;;;;5013064;28;20525;-65
2022/07/25 07:48:34;;;;;;;3.43;2.90;;;31.50;66.60;;;;;;5013182;28;20178;-66
2022/07/25 07:51:01;;;;;;;3.03;2.53;;;32.60;63.90;;;;;;5012507;28;20646;-65
2022/07/25 07:56:11;;;;;;;3.00;2.80;;;31.90;65.90;;;;;;5012955;28;20530;-65
2022/07/25 07:58:36;;;;;;;5.20;3.80;;;33.10;65.00;;;;;;5013074;28;20411;-64
2022/07/25 08:01:03;;;;;;;3.50;3.17;;;33.60;63.90;;;;;;5013045;28;20665;-64
2022/07/25 08:03:28;;;;;;;3.30;3.10;;;33.00;63.00;;;;;;5013380;28;20256;-64
2022/07/25 08:05:54;;;;;;;4.33;3.93;;;32.60;62.50;;;;;;5012273;28;20827;-65
2022/07/25 08:08:19;;;;;;;3.67;3.37;;;32.50;63.20;;;;;;5012896;28;20299;-65
2022/07/25 08:10:47;;;;;;;3.33;3.03;;;32.70;62.60;;;;;;5012587;28;20195;-64
2022/07/25 08:13:14;;;;;;;3.77;3.27;;;33.80;61.10;;;;;;5012615;28;20275;-65
2022/07/25 08:15:42;;;;;;;3.07;2.87;;;34.10;59.60;;;;;;5012653;28;20423;-64
2022/07/25 08:18:07;;;;;;;3.93;3.63;;;32.90;61.50;;;;;;5012887;28;20897;-64
2022/07/25 08:20:33;;;;;;;4.60;2.80;;;32.20;64.20;;;;;;5012658;28;20410;-65
2022/07/25 08:22:58;;;;;;;5.70;4.80;;;32.90;63.60;;;;;;5012763;28;20577;-64
2022/07/25 08:25:24;;;;;;;3.60;3.30;;;33.30;62.10;;;;;;5012357;28;20585;-65
2022/07/25 08:27:52;;;;;;;3.17;2.97;;;33.20;60.90;;;;;;5012792;28;20184;-65
2022/07/25 08:30:18;;;;;;;4.40;4.10;;;32.90;65.30;;;;;;5013181;28;20175;-65
2022/07/25 08:32:51;;;;;;;3.57;3.27;;;32.90;62.60;;;;;;5012856;28;20972;-65
2022/07/25 08:35:20;;;;;;;3.47;3.17;;;33.00;62.20;;;;;;5012129;28;20403;-65
2022/07/25 08:37:45;;;;;;;4.80;4.37;;;33.50;61.80;;;;;;5012694;28;20423;-65
2022/07/25 08:40:13;;;;;;;4.77;4.30;;;33.20;63.10;;;;;;5012211;28;20897;-65
2022/07/25 08:42:39;;;;;;;4.20;3.80;;;33.20;61.80;;;;;;5010998;28;20275;-65
2022/07/25 08:45:07;;;;;;;4.37;4.07;;;32.70;63.20;;;;;;5012043;28;20411;-65
2022/07/25 08:47:35;;;;;;;3.97;3.67;;;33.10;63.40;;;;;;5012052;28;20979;-65
2022/07/25 08:50:07;;;;;;;3.70;3.40;;;33.40;62.70;;;;;;5012060;28;20438;-64
2022/07/25 08:52:36;;;;;;;3.90;3.53;;;34.20;62.30;;;;;;5011947;28;20457;-64
2022/07/25 08:55:04;;;;;;;4.23;3.93;;;34.10;61.20;;;;;;5011443;28;20414;-64
2022/07/25 08:57:30;;;;;;;4.73;4.33;;;33.30;63.60;;;;;;5010478;28;20450;-64
2022/07/25 08:59:57;;;;;;;4.40;3.97;;;34.80;60.40;;;;;;5011948;28;20877;-64
2022/07/25 09:02:26;;;;;;;4.10;3.80;;;33.90;61.40;;;;;;5011293;28;20176;-65
2022/07/25 09:04:51;;;;;;;4.27;3.97;;;33.70;62.10;;;;;;5011611;28;20399;-65
2022/07/25 09:07:17;;;;;;;4.63;4.10;;;34.10;62.60;;;;;;5011657;28;20450;-65
2022/07/25 09:09:43;;;;;;;4.40;4.10;;;33.60;60.90;;;;;;5011592;28;20184;-67
2022/07/25 09:12:08;;;;;;;4.57;4.17;;;33.90;63.40;;;;;;5011876;28;20203;-66
2022/07/25 09:14:43;;;;;;;5.27;4.77;;;34.10;61.10;;;;;;5011405;28;20408;-65
2022/07/25 09:17:09;;;;;;;4.73;4.30;;;33.80;62.10;;;;;;5011253;28;20542;-65
2022/07/25 09:19:35;;;;;;;5.00;4.60;;;33.90;62.60;;;;;;5011154;28;20522;-65
2022/07/25 09:22:06;;;;;;;3.97;3.67;;;33.90;62.50;;;;;;5011143;28;20279;-65
2022/07/25 09:24:33;;;;;;;4.63;4.23;;;34.30;61.00;;;;;;5010995;28;20547;-65
2022/07/25 09:27:09;;;;;;;5.20;4.80;;;34.70;60.20;;;;;;5011094;28;20801;-65
2022/07/25 09:29:35;;;;;;;5.23;4.83;;;34.70;59.60;;;;;;5011135;28;20411;-65
2022/07/25 09:32:12;;;;;;;4.60;4.20;;;34.80;60.30;;;;;;5010850;28;20541;-65
2022/07/25 09:34:39;;;;;;;5.23;4.80;;;34.30;61.10;;;;;;5010576;28;20882;-65
2022/07/25 09:37:13;;;;;;;4.33;4.03;;;33.40;62.40;;;;;;5010814;28;20462;-65
2022/07/25 09:39:42;;;;;;;5.03;4.67;;;34.70;61.30;;;;;;5011198;28;20410;-65
2022/07/25 09:42:27;;;;;;;4.50;4.20;;;34.60;60.40;;;;;;5011171;28;20760;-65
2022/07/25 09:45:03;;;;;;;4.47;4.10;;;34.80;60.20;;;;;;5010672;28;20410;-64
2022/07/25 09:47:30;;;;;;;4.03;3.73;;;34.50;62.10;;;;;;5010776;28;20952;-64
2022/07/25 09:49:56;;;;;;;5.17;4.77;;;34.10;61.70;;;;;;5010822;28;20892;-64
2022/07/25 09:52:22;;;;;;;5.70;5.20;;;34.40;61.80;;;;;;5010912;28;20455;-64
2022/07/25 09:54:48;;;;;;;5.27;4.10;;;34.60;60.80;;;;;;5010652;28;20168;-64
2022/07/25 09:57:14;;;;;;;5.23;4.90;;;34.80;61.90;;;;;;5011191;28;20485;-65
2022/07/25 09:59:40;;;;;;;5.20;4.73;;;34.70;61.30;;;;;;5010769;28;20403;-64
2022/07/25 10:02:10;;;;;;;5.27;4.87;;;34.50;61.30;;;;;;5010950;28;20894;-64
2022/07/25 10:04:49;;;;;;;4.97;4.47;;;34.40;63.70;;;;;;5010506;28;20176;-64
2022/07/25 10:07:18;;;;;;;4.83;4.53;;;34.70;63.40;;;;;;5010488;28;20450;-65
2022/07/25 10:09:45;;;;;;;4.70;4.30;;;34.60;64.70;;;;;;5010652;28;20442;-64
2022/07/25 10:12:14;;;;;;;6.53;5.37;;;34.80;62.80;;;;;;5010454;28;20501;-65
2022/07/25 10:14:40;;;;;;;6.03;5.53;;;34.40;61.90;;;;;;5011275;28;20449;-64
2022/07/25 10:17:06;;;;;;;5.53;5.10;;;34.50;63.20;;;;;;5014525;28;20446;-65
2022/07/25 10:19:50;;;;;;;7.33;6.70;;;34.20;61.80;;;;;;5014666;28;20438;-65
2022/07/25 10:22:15;;;;;;;5.80;5.30;;;34.30;62.20;;;;;;5014487;28;20761;-65
2022/07/25 10:24:46;;;;;;;6.20;5.70;;;33.90;61.50;;;;;;5014092;28;20442;-65
2022/07/25 10:27:19;;;;;;;6.27;5.77;;;33.90;61.50;;;;;;5014758;28;20282;-65
2022/07/25 10:29:51;;;;;;;5.37;4.87;;;34.10;61.90;;;;;;5014717;28;20411;-65
2022/07/25 10:32:17;;;;;;;6.27;5.73;;;33.90;62.00;;;;;;5014150;28;20872;-65
2022/07/25 10:34:52;;;;;;;6.47;5.87;;;33.70;62.50;;;;;;5014259;28;20419;-65
2022/07/25 10:37:19;;;;;;;5.53;5.03;;;33.80;64.30;;;;;;5014149;28;20649;-65
2022/07/25 10:39:47;;;;;;;5.63;5.23;;;33.70;63.80;;;;;;5013971;28;20411;-64
2022/07/25 10:42:15;;;;;;;7.17;6.60;;;33.90;61.00;;;;;;5013968;28;20448;-64
2022/07/25 10:44:46;;;;;;;5.97;5.47;;;33.90;60.60;;;;;;5013741;28;20407;-65
2022/07/25 10:47:13;;;;;;;5.93;5.33;;;34.20;61.80;;;;;;5013661;28;20431;-65
2022/07/25 10:49:41;;;;;;;6.73;6.23;;;33.90;60.80;;;;;;5014073;28;20489;-64
2022/07/25 10:52:14;;;;;;;6.10;5.60;;;33.70;61.40;;;;;;5014199;28;20553;-65
2022/07/25 10:54:40;;;;;;;7.63;5.10;;;34.10;62.70;;;;;;5014340;28;20522;-64
2022/07/25 10:57:13;;;;;;;5.80;5.30;;;34.20;63.10;;;;;;5014189;28;20470;-64
2022/07/25 10:59:39;;;;;;;9.33;8.30;;;34.10;60.10;;;;;;5014345;28;20211;-65
2022/07/25 11:02:08;;;;;;;5.53;5.13;;;34.20;59.80;;;;;;5013761;28;20439;-65
2022/07/25 11:04:35;;;;;;;5.60;5.10;;;34.00;59.50;;;;;;5013251;28;20979;-64
2022/07/25 11:07:27;;;;;;;16.73;7.47;;;33.90;60.40;;;;;;5013292;28;20450;-65
2022/07/25 11:09:58;;;;;;;6.00;5.47;;;34.20;60.70;;;;;;5010496;28;20427;-65
2022/07/25 11:12:25;;;;;;;7.37;6.77;;;34.20;60.20;;;;;;5013282;28;20450;-65
2022/07/25 11:14:55;;;;;;;6.77;6.27;;;34.10;60.80;;;;;;5013550;28;20497;-65
2022/07/25 11:17:22;;;;;;;7.40;6.70;;;34.00;60.70;;;;;;5013561;28;20529;-65
2022/07/25 11:20:01;;;;;;;5.60;5.10;;;34.30;60.60;;;;;;5013703;28;20403;-65
2022/07/25 11:22:29;;;;;;;6.57;5.03;;;34.40;59.20;;;;;;5013842;28;20443;-65
2022/07/25 11:24:56;;;;;;;5.33;4.83;;;34.60;59.00;;;;;;5013358;28;20506;-65
2022/07/25 11:27:24;;;;;;;7.00;5.73;;;34.50;58.50;;;;;;5012595;28;20430;-65
2022/07/25 11:29:50;;;;;;;5.60;5.10;;;34.50;58.30;;;;;;5013396;28;20866;-65
2022/07/25 11:32:16;;;;;;;5.80;5.30;;;34.60;57.50;;;;;;5013237;28;20500;-65
2022/07/25 11:34:51;;;;;;;5.70;5.27;;;34.70;57.70;;;;;;5013016;28;20172;-65
2022/07/25 11:37:18;;;;;;;6.33;5.73;;;34.60;57.60;;;;;;5013000;28;20195;-65
2022/07/25 11:39:45;;;;;;;4.93;4.53;;;34.50;58.30;;;;;;5013252;28;20748;-65
2022/07/25 11:42:15;;;;;;;6.10;5.60;;;34.30;58.60;;;;;;5012995;28;20407;-65
2022/07/25 11:44:46;;;;;;;9.27;8.40;;;34.10;58.30;;;;;;5012927;28;20415;-65
2022/07/25 11:47:30;;;;;;;5.53;5.03;;;34.40;58.70;;;;;;5012767;28;20438;-65
2022/07/25 11:50:02;;;;;;;10.20;7.37;;;34.30;58.90;;;;;;5012991;28;20521;-64
2022/07/25 11:52:36;;;;;;;6.30;5.70;;;34.40;57.40;;;;;;5013058;28;20485;-64
2022/07/25 11:55:08;;;;;;;6.00;5.57;;;34.20;57.10;;;;;;5012923;28;20414;-64
2022/07/25 11:57:44;;;;;;;7.90;6.07;;;34.40;56.40;;;;;;5012772;28;20641;-65
2022/07/25 12:00:19;;;;;;;7.30;6.60;;;34.70;56.70;;;;;;5012506;28;20675;-65
2022/07/25 12:02:46;;;;;;;7.70;6.90;;;34.90;56.40;;;;;;5012985;28;20419;-65
2022/07/25 12:05:14;;;;;;;6.13;5.63;;;34.70;55.20;;;;;;5012013;28;20506;-65
2022/07/25 12:07:51;;;;;;;6.50;5.90;;;34.80;55.40;;;;;;5012398;28;20446;-65
2022/07/25 12:10:18;;;;;;;6.17;4.80;;;34.70;54.00;;;;;;5012424;28;20418;-65
2022/07/25 12:12:49;;;;;;;6.00;5.50;;;34.70;54.80;;;;;;5012436;28;20957;-65
2022/07/25 12:15:18;;;;;;;5.37;4.87;;;35.00;55.10;;;;;;5012191;28;20411;-65
2022/07/25 12:17:44;;;;;;;6.60;6.10;;;34.70;55.10;;;;;;5011955;28;21045;-65
2022/07/25 12:20:14;;;;;;;5.60;5.10;;;34.60;54.90;;;;;;5012171;28;20414;-65
2022/07/25 12:22:39;;;;;;;5.60;5.20;;;34.70;55.40;;;;;;5012210;28;20468;-65
2022/07/25 12:25:05;;;;;;;5.53;5.03;;;34.70;55.40;;;;;;5011839;28;20500;-64
2022/07/25 12:27:31;;;;;;;5.80;5.20;;;34.80;55.20;;;;;;5011791;28;20292;-64
2022/07/25 12:29:57;;;;;;;6.87;6.37;;;34.90;55.40;;;;;;5011652;28;20419;-64
2022/07/25 12:32:22;;;;;;;6.80;6.13;;;34.90;55.00;;;;;;5011569;28;20575;-64
2022/07/25 12:34:48;;;;;;;6.10;5.60;;;34.80;55.50;;;;;;5011609;28;20254;-65
2022/07/25 12:37:14;;;;;;;6.17;5.67;;;35.00;55.30;;;;;;5011473;28;20222;-65
2022/07/25 12:39:39;;;;;;;6.03;5.53;;;35.00;54.80;;;;;;5011772;28;20160;-64
2022/07/25 12:42:05;;;;;;;6.00;5.50;;;34.90;55.60;;;;;;5011537;28;20176;-65
2022/07/25 12:44:30;;;;;;;6.30;5.80;;;34.70;55.30;;;;;;5011537;28;20599;-64
2022/07/25 12:46:56;;;;;;;7.10;6.50;;;34.30;55.30;;;;;;5011594;28;20207;-65
2022/07/25 12:49:21;;;;;;;6.23;5.40;;;34.50;55.10;;;;;;5011775;28;20226;-65